Time;durP1;ratioP1;P1;durP2;ratioP2;P2;SDS_P1;SDS_P2;PMS_P1;PMS_P2;Temp;Humidity;BMP_temperature;BMP_pressure;BME280_temperature;BME280_humidity;BME280_pressure;Samples;Min_cycle;Max_cycle;Signal;HPM_P1;HPM_P2
2022/10/10 00:01:26;;;;;;;3.53;1.70;;;;;;;17.50;64.24;101488.78;6324480;22;20022;-88
2022/10/10 00:03:51;;;;;;;3.42;1.67;;;;;;;17.48;64.13;101483.56;6325742;22;20034;-89
2022/10/10 00:06:17;;;;;;;3.60;1.58;;;;;;;17.48;64.19;101487.06;6309030;22;20009;-91
2022/10/10 00:08:44;;;;;;;2.35;1.35;;;;;;;17.48;64.04;101486.16;6299099;22;20026;-89
2022/10/10 00:11:11;;;;;;;2.22;1.50;;;;;;;17.48;64.20;101480.97;6299589;22;20009;-87
2022/10/10 00:20:22;;;;;;;2.50;1.40;;;;;;;17.48;64.06;101468.84;6358732;22;20013;-88
2022/10/10 00:22:48;;;;;;;1.63;1.30;;;;;;;17.49;64.34;101474.91;6327435;22;20331;-89
2022/10/10 00:25:14;;;;;;;2.65;1.50;;;;;;;17.49;64.04;101464.50;6275123;22;20018;-88
2022/10/10 00:27:39;;;;;;;2.58;1.30;;;;;;;17.47;64.27;101464.47;6300344;22;20449;-89
2022/10/10 00:30:07;;;;;;;2.38;1.33;;;;;;;17.48;64.11;101463.63;6327010;22;20377;-88
2022/10/10 00:32:32;;;;;;;2.20;1.27;;;;;;;17.47;63.99;101461.88;6326343;22;20048;-89
2022/10/10 00:41:50;;;;;;;1.95;1.20;;;;;;;17.47;63.84;101455.81;6293084;22;20026;-89
2022/10/10 00:44:16;;;;;;;2.70;1.58;;;;;;;17.48;64.13;101452.34;6242677;22;20022;-88
2022/10/10 00:46:42;;;;;;;2.78;1.48;;;;;;;17.47;64.05;101451.47;6241121;22;20039;-89
2022/10/10 00:49:48;;;;;;;1.98;1.33;;;;;;;17.48;64.02;101452.34;6271656;22;20012;-89
2022/10/10 00:52:13;;;;;;;2.28;1.40;;;;;;;17.47;64.06;101446.28;6292850;22;20390;-89
2022/10/10 00:54:39;;;;;;;2.10;1.33;;;;;;;17.47;64.11;101448.00;6266210;22;20016;-88
2022/10/10 00:57:41;;;;;;;2.28;1.50;;;;;;;17.46;64.09;101441.94;6240811;22;20473;-91
2022/10/10 01:00:26;;;;;;;2.05;1.25;;;;;;;17.48;64.05;101447.13;6198646;23;20009;-89
2022/10/10 01:02:52;;;;;;;2.35;1.25;;;;;;;17.48;64.13;101441.94;6149761;23;20056;-89
2022/10/10 01:05:17;;;;;;;2.33;1.40;;;;;;;17.47;64.10;101437.59;6173511;23;20012;-88
2022/10/10 01:07:44;;;;;;;2.10;1.40;;;;;;;17.48;63.97;101440.22;6172900;23;20017;-88
2022/10/10 01:10:17;;;;;;;1.70;1.30;;;;;;;17.46;63.98;101431.53;6233073;23;20049;-88
2022/10/10 01:23:09;;;;;;;2.45;1.33;;;;;;;17.48;64.02;101431.53;6360949;22;20038;-88
2022/10/10 01:45:12;;;;;;;1.70;1.10;;;;;;;17.45;63.72;101393.34;6372080;22;20022;-90
2022/10/10 01:47:38;;;;;;;2.03;1.30;;;;;;;17.46;64.10;101396.81;6358325;22;20482;-89
2022/10/10 01:57:25;;;;;;;2.17;1.25;;;;;;;17.46;63.88;101389.00;6364730;22;20097;-88
2022/10/10 02:00:19;;;;;;;1.95;1.30;;;;;;;17.47;63.85;101386.41;6265411;22;20050;-89
2022/10/10 02:03:01;;;;;;;1.75;1.20;;;;;;;17.47;63.88;101382.97;6265834;22;20007;-90
2022/10/10 02:05:36;;;;;;;2.42;1.27;;;;;;;17.46;64.07;101379.50;6268228;22;20477;-89
2022/10/10 02:08:14;;;;;;;2.13;1.15;;;;;;;17.46;63.80;101382.09;6340759;22;20035;-89
2022/10/10 02:10:46;;;;;;;1.73;1.17;;;;;;;17.44;64.11;101378.63;6360848;22;20028;-88
2022/10/10 02:13:13;;;;;;;1.58;1.20;;;;;;;17.45;63.84;101375.16;6339047;22;20007;-84
2022/10/10 02:15:48;;;;;;;2.20;1.30;;;;;;;17.46;63.72;101373.41;6337802;22;20036;-88
2022/10/10 02:18:17;;;;;;;2.65;1.30;;;;;;;17.44;63.87;101365.63;6362646;22;20030;-87
2022/10/10 02:20:44;;;;;;;1.42;1.10;;;;;;;17.43;63.67;101369.06;6364011;22;20003;-86
2022/10/10 02:23:14;;;;;;;3.67;1.55;;;;;;;17.46;63.58;101374.28;6338843;22;20017;-87
2022/10/10 02:25:42;;;;;;;1.83;1.00;;;;;;;17.44;63.63;101364.72;6364560;22;20028;-88
2022/10/10 02:34:56;;;;;;;2.00;1.20;;;;;;;17.44;63.94;101365.63;6393850;22;20066;-88
2022/10/10 02:37:23;;;;;;;2.15;1.17;;;;;;;17.44;63.88;101364.72;6363867;22;20025;-88
2022/10/10 02:39:54;;;;;;;1.30;1.00;;;;;;;17.45;63.80;101359.53;6365508;22;20037;-89
2022/10/10 02:42:22;;;;;;;4.28;1.30;;;;;;;17.43;63.87;101356.06;6364411;22;19998;-88
2022/10/10 02:44:48;;;;;;;1.92;1.10;;;;;;;17.44;63.73;101355.22;6365253;22;20037;-89
2022/10/10 02:50:15;;;;;;;2.67;1.38;;;;;;;17.44;63.69;101344.81;6386853;22;20022;-89
2022/10/10 02:52:40;;;;;;;1.65;1.23;;;;;;;17.44;63.67;101344.81;6339991;22;20016;-89
2022/10/10 02:55:06;;;;;;;1.75;1.20;;;;;;;17.44;63.52;101347.41;6339022;22;20073;-90
2022/10/10 02:57:31;;;;;;;1.85;1.23;;;;;;;17.43;63.75;101345.66;6341363;22;20028;-87
2022/10/10 02:59:57;;;;;;;2.33;1.30;;;;;;;17.42;63.72;101343.94;6363843;22;20013;-86
2022/10/10 03:02:22;;;;;;;2.95;1.02;;;;;;;17.44;63.83;101341.31;6337204;22;20021;-88
2022/10/10 03:04:48;;;;;;;2.38;1.20;;;;;;;17.42;63.83;101338.75;6310882;22;20070;-88
2022/10/10 03:17:28;;;;;;;1.50;1.05;;;;;;;17.42;63.53;101328.31;6343891;22;20036;-89
2022/10/10 03:20:12;;;;;;;2.10;1.30;;;;;;;17.43;63.66;101337.00;6367389;22;20010;-89
2022/10/10 03:25:52;;;;;;;1.83;1.00;;;;;;;17.41;63.26;101326.56;6392269;22;20018;-87
2022/10/10 03:28:17;;;;;;;2.50;1.48;;;;;;;17.42;63.39;101332.63;6336971;22;20014;-88
2022/10/10 03:36:40;;;;;;;2.75;1.40;;;;;;;17.40;63.41;101337.88;6380915;22;20028;-87
2022/10/10 03:39:08;;;;;;;2.50;1.30;;;;;;;17.41;63.70;101336.13;6369675;22;20003;-86
2022/10/10 03:44:55;;;;;;;1.67;1.00;;;;;;;17.40;63.50;101339.63;6394098;22;20018;-87
2022/10/10 03:47:21;;;;;;;2.45;1.20;;;;;;;17.41;63.56;101338.72;6363518;22;20011;-88
2022/10/10 03:49:46;;;;;;;1.45;1.10;;;;;;;17.40;63.47;101337.00;6336656;22;20070;-89
2022/10/10 03:55:34;;;;;;;2.25;1.20;;;;;;;17.40;63.49;101334.41;6395906;22;20025;-87
2022/10/10 03:57:59;;;;;;;1.73;1.20;;;;;;;17.39;63.40;101328.31;6366097;22;20026;-86
2022/10/10 04:00:25;;;;;;;1.90;1.20;;;;;;;17.40;63.29;101337.88;6362997;22;20013;-87
2022/10/10 04:02:52;;;;;;;1.42;1.15;;;;;;;17.39;63.42;101333.50;6337145;22;20160;-88
2022/10/10 04:05:18;;;;;;;1.70;1.20;;;;;;;17.39;63.35;101327.44;6336480;22;20006;-85
2022/10/10 04:17:39;;;;;;;3.78;1.20;;;;;;;17.39;63.42;101320.50;6393082;22;20068;-87
2022/10/10 04:20:05;;;;;;;2.22;1.20;;;;;;;17.38;63.24;101318.78;6340041;22;20006;-86
2022/10/10 04:26:16;;;;;;;1.50;1.17;;;;;;;17.36;63.55;101310.13;6395689;22;20065;-89
2022/10/10 04:28:41;;;;;;;1.30;1.00;;;;;;;17.38;63.58;101313.59;6366392;22;20010;-88
2022/10/10 04:31:07;;;;;;;1.65;1.10;;;;;;;17.38;63.11;101318.78;6338667;22;20024;-87
2022/10/10 04:36:45;;;;;;;2.08;1.20;;;;;;;17.37;63.42;101313.59;6373084;22;20022;-81
2022/10/10 04:39:11;;;;;;;1.65;1.00;;;;;;;17.37;63.64;101317.03;6371665;22;20010;-82
2022/10/10 04:41:36;;;;;;;1.80;1.00;;;;;;;17.37;63.51;101319.63;6317964;22;20502;-82
2022/10/10 04:44:01;;;;;;;1.98;1.30;;;;;;;17.36;63.31;101322.28;6317726;22;20464;-81
2022/10/10 04:46:27;;;;;;;1.38;0.85;;;;;;;17.36;63.42;101315.31;6371839;22;20445;-82
2022/10/10 04:48:52;;;;;;;1.42;1.00;;;;;;;17.37;63.32;101310.97;6345050;22;20063;-83
2022/10/10 04:51:17;;;;;;;2.85;1.20;;;;;;;17.35;63.28;101313.56;6344277;22;20353;-83
2022/10/10 04:53:43;;;;;;;1.33;0.98;;;;;;;17.37;63.43;101319.63;6319397;22;20092;-81
2022/10/10 04:56:09;;;;;;;1.83;1.08;;;;;;;17.37;63.43;101327.44;6344270;22;20022;-81
2022/10/10 04:58:35;;;;;;;1.15;1.00;;;;;;;17.37;63.37;101330.03;6317548;22;20063;-80
2022/10/10 05:01:00;;;;;;;1.40;0.90;;;;;;;17.36;63.39;101330.06;6343794;22;20014;-80
2022/10/10 05:03:25;;;;;;;1.90;1.27;;;;;;;17.36;63.14;101333.53;6344020;22;20006;-79
2022/10/10 05:05:51;;;;;;;1.75;1.20;;;;;;;17.36;63.42;101330.06;6372244;22;20666;-79
2022/10/10 05:08:18;;;;;;;7.05;2.90;;;;;;;17.36;63.56;101327.47;6317735;22;20337;-83
2022/10/10 05:10:45;;;;;;;18.20;5.88;;;;;;;17.36;63.43;101328.31;6319509;22;20371;-83
2022/10/10 05:13:12;;;;;;;26.13;7.43;;;;;;;17.37;63.38;101330.03;6344729;22;20007;-82
2022/10/10 05:15:38;;;;;;;23.60;7.15;;;;;;;17.36;63.37;101327.47;6318276;22;20422;-81
2022/10/10 05:18:04;;;;;;;23.20;7.35;;;;;;;17.37;63.29;101327.44;6343414;22;20426;-80
2022/10/10 05:20:31;;;;;;;19.67;6.28;;;;;;;17.36;63.48;101327.47;6343288;22;20139;-80
2022/10/10 05:22:56;;;;;;;21.38;6.30;;;;;;;17.37;63.21;101330.03;6343920;22;20014;-81
2022/10/10 05:25:22;;;;;;;17.38;5.70;;;;;;;17.37;63.28;101337.84;6317719;22;20014;-83
2022/10/10 05:27:47;;;;;;;16.25;5.75;;;;;;;17.36;63.26;101340.47;6343354;22;20006;-81
2022/10/10 05:30:13;;;;;;;21.38;5.75;;;;;;;17.37;63.44;101345.66;6343499;22;20002;-81
2022/10/10 05:32:38;;;;;;;22.73;7.05;;;;;;;17.37;63.38;101342.19;6343429;22;20010;-83
2022/10/10 05:35:05;;;;;;;22.48;8.25;;;;;;;17.36;63.45;101345.69;6322966;22;20042;-83
2022/10/10 05:37:31;;;;;;;22.70;7.03;;;;;;;17.36;63.37;101337.88;6343693;22;20101;-83
2022/10/10 05:39:57;;;;;;;18.27;6.20;;;;;;;17.36;63.45;101343.06;6372076;22;20068;-83
2022/10/10 05:42:22;;;;;;;21.27;6.95;;;;;;;17.35;63.53;101333.53;6372386;22;20018;-83
2022/10/10 05:44:48;;;;;;;18.80;6.43;;;;;;;17.36;63.53;101340.47;6344652;22;20380;-83
2022/10/10 05:47:14;;;;;;;17.38;5.93;;;;;;;17.36;63.27;101332.69;6319770;22;20006;-81
2022/10/10 05:49:39;;;;;;;20.85;6.20;;;;;;;17.37;63.42;101337.84;6343300;22;20335;-81
2022/10/10 05:52:05;;;;;;;22.05;5.95;;;;;;;17.36;63.49;101336.13;6316841;22;20066;-84
2022/10/10 05:54:30;;;;;;;18.88;5.88;;;;;;;17.37;63.42;101337.00;6343162;22;20070;-82
2022/10/10 05:56:55;;;;;;;16.23;5.63;;;;;;;17.36;63.35;101343.06;6371276;22;20409;-82
2022/10/10 05:59:21;;;;;;;10.63;5.30;;;;;;;17.36;63.42;101332.69;6317619;22;20021;-84
2022/10/10 06:01:46;;;;;;;16.30;5.68;;;;;;;17.36;63.42;101343.94;6317857;22;20085;-83
2022/10/10 06:04:12;;;;;;;14.98;5.45;;;;;;;17.36;63.42;101346.53;6343253;22;20055;-84
2022/10/10 06:06:37;;;;;;;12.88;5.22;;;;;;;17.37;63.17;101345.66;6317488;22;20317;-77
2022/10/10 06:09:02;;;;;;;13.02;4.70;;;;;;;17.36;63.11;101345.69;6343162;22;20010;-79
2022/10/10 06:11:28;;;;;;;15.43;5.22;;;;;;;17.36;63.10;101343.06;6290972;22;20338;-79
2022/10/10 06:13:54;;;;;;;10.25;4.53;;;;;;;17.37;63.35;101344.78;6290748;22;20334;-79
2022/10/10 06:16:23;;;;;;;14.50;4.93;;;;;;;17.38;63.32;101347.41;6370924;22;20393;-80
2022/10/10 06:18:49;;;;;;;10.35;4.20;;;;;;;17.38;63.21;101339.59;6343602;22;20002;-80
2022/10/10 06:21:15;;;;;;;12.75;4.57;;;;;;;17.39;63.32;101348.28;6343815;22;20081;-79
2022/10/10 06:23:42;;;;;;;11.63;4.57;;;;;;;17.41;63.09;101350.00;6317717;22;20062;-79
2022/10/10 06:26:07;;;;;;;12.35;4.15;;;;;;;17.41;63.26;101347.41;6342963;22;20013;-78
2022/10/10 06:28:34;;;;;;;11.73;4.35;;;;;;;17.42;62.96;101343.03;6317730;22;20330;-79
2022/10/10 06:31:01;;;;;;;10.73;4.28;;;;;;;17.42;63.14;101346.53;6343263;22;20015;-80
2022/10/10 06:33:27;;;;;;;8.57;4.10;;;;;;;17.44;62.95;101351.72;6371678;22;19999;-79
2022/10/10 06:35:52;;;;;;;10.20;4.38;;;;;;;17.44;62.88;101347.41;6318088;22;20021;-79
2022/10/10 06:38:18;;;;;;;10.13;3.63;;;;;;;17.45;63.01;101348.28;6318770;22;20003;-79
2022/10/10 06:40:43;;;;;;;12.05;4.40;;;;;;;17.45;62.87;101353.47;6318366;22;20010;-79
2022/10/10 06:43:11;;;;;;;8.95;3.88;;;;;;;17.46;62.81;101349.97;6343503;22;20002;-79
2022/10/10 06:45:45;;;;;;;10.38;4.25;;;;;;;17.46;62.88;101353.47;6343682;22;20070;-78
2022/10/10 06:48:12;;;;;;;9.77;3.95;;;;;;;17.47;63.10;101354.34;6346434;22;20050;-79
2022/10/10 06:50:38;;;;;;;9.60;3.67;;;;;;;17.48;62.69;101356.06;6350215;22;19998;-80
2022/10/10 06:53:03;;;;;;;10.32;3.75;;;;;;;17.49;62.80;101357.81;6326078;22;20007;-79
2022/10/10 06:55:29;;;;;;;8.93;3.55;;;;;;;17.49;63.01;101365.63;6351660;22;20009;-79
2022/10/10 06:57:54;;;;;;;8.98;3.97;;;;;;;17.49;62.69;101355.22;6322838;22;20006;-80
2022/10/10 07:00:20;;;;;;;7.47;3.28;;;;;;;17.48;62.58;101363.88;6345351;22;20013;-79
2022/10/10 07:02:45;;;;;;;9.75;3.78;;;;;;;17.48;62.63;101353.47;6344448;22;20360;-79
2022/10/10 07:05:14;;;;;;;8.98;3.70;;;;;;;17.50;62.42;101361.28;6344239;22;20002;-79
2022/10/10 07:07:40;;;;;;;9.43;3.47;;;;;;;17.50;62.70;101369.94;6344680;22;20380;-79
2022/10/10 07:10:07;;;;;;;8.30;4.18;;;;;;;17.52;62.60;101368.19;6318772;22;20006;-79
2022/10/10 07:12:32;;;;;;;9.18;3.70;;;;;;;17.54;62.44;101366.47;6345340;22;20002;-79
2022/10/10 07:14:57;;;;;;;9.30;3.58;;;;;;;17.56;62.24;101369.94;6344335;22;20054;-79
2022/10/10 07:17:23;;;;;;;7.45;3.30;;;;;;;17.59;62.17;101369.06;6292549;22;20006;-79
2022/10/10 07:19:48;;;;;;;5.65;2.95;;;;;;;17.59;62.24;101369.91;6318877;22;20071;-79
2022/10/10 07:22:14;;;;;;;8.15;3.33;;;;;;;17.59;62.10;101369.91;6318351;22;20010;-78
2022/10/10 07:24:39;;;;;;;5.97;3.47;;;;;;;17.60;62.13;101374.28;6344360;22;20001;-79
2022/10/10 07:27:05;;;;;;;7.45;3.63;;;;;;;17.60;62.01;101370.81;6318646;22;20010;-79
2022/10/10 07:29:30;;;;;;;10.57;3.33;;;;;;;17.62;62.18;101377.75;6318296;22;20010;-78
2022/10/10 07:31:56;;;;;;;9.00;4.05;;;;;;;17.64;61.91;101380.34;6318310;22;20097;-79
2022/10/10 07:34:22;;;;;;;9.05;3.38;;;;;;;17.65;61.99;101379.47;6318211;22;20016;-79
2022/10/10 07:36:49;;;;;;;8.32;3.50;;;;;;;17.65;61.78;101371.66;6338713;22;20019;-79
2022/10/10 07:39:19;;;;;;;6.47;3.00;;;;;;;17.67;61.71;101380.34;6338970;22;20007;-79
2022/10/10 07:41:44;;;;;;;7.00;3.28;;;;;;;17.67;61.75;101378.59;6338810;22;20013;-79
2022/10/10 07:44:09;;;;;;;8.68;3.30;;;;;;;17.66;61.32;101363.00;6312556;22;19999;-78
2022/10/10 07:46:35;;;;;;;6.78;3.10;;;;;;;17.65;61.56;101372.53;6287220;22;20093;-79
2022/10/10 07:49:03;;;;;;;6.65;2.90;;;;;;;17.65;61.88;101376.88;6312763;22;20435;-80
2022/10/10 07:51:28;;;;;;;7.28;3.25;;;;;;;17.66;61.92;101376.00;6312980;22;20093;-79
2022/10/10 07:53:53;;;;;;;7.72;2.78;;;;;;;17.63;61.72;101374.25;6313493;22;20035;-79
2022/10/10 07:56:19;;;;;;;6.95;3.42;;;;;;;17.61;61.75;101370.78;6313393;22;20014;-79
2022/10/10 07:58:44;;;;;;;9.02;3.03;;;;;;;17.59;61.85;101385.53;6340748;22;20011;-79
2022/10/10 08:01:12;;;;;;;8.80;3.08;;;;;;;17.60;61.89;101389.88;6344788;22;20010;-79
2022/10/10 08:03:37;;;;;;;6.68;2.92;;;;;;;17.60;61.70;101392.50;6342085;22;20011;-79
2022/10/10 08:06:08;;;;;;;6.55;2.95;;;;;;;17.60;61.86;101395.09;6313606;22;20017;-79
2022/10/10 08:08:34;;;;;;;6.10;2.88;;;;;;;17.59;61.85;101389.88;6339450;22;20065;-79
2022/10/10 08:11:00;;;;;;;5.90;2.92;;;;;;;17.60;61.80;101392.50;6340793;22;20003;-79
2022/10/10 08:13:26;;;;;;;5.47;2.83;;;;;;;17.60;61.84;101392.50;6313086;22;20029;-79
2022/10/10 08:15:52;;;;;;;4.90;2.58;;;;;;;17.60;61.65;101395.09;6339480;22;20006;-78
2022/10/10 08:18:18;;;;;;;4.82;2.92;;;;;;;17.59;61.90;101403.75;6342864;22;20423;-79
2022/10/10 08:20:44;;;;;;;4.95;2.67;;;;;;;17.60;61.89;101410.72;6350374;22;20018;-80
2022/10/10 08:23:10;;;;;;;5.18;2.60;;;;;;;17.60;61.85;101407.25;6348881;22;20085;-79
2022/10/10 08:25:35;;;;;;;6.00;2.60;;;;;;;17.60;61.75;101417.66;6347521;22;20013;-79
2022/10/10 08:28:00;;;;;;;6.38;2.90;;;;;;;17.61;61.82;101412.44;6346311;22;20026;-79
2022/10/10 08:30:26;;;;;;;6.15;2.70;;;;;;;17.63;61.63;101417.66;6346783;22;20003;-81
2022/10/10 08:32:51;;;;;;;5.45;2.42;;;;;;;17.64;61.59;101422.00;6349268;22;20013;-79
2022/10/10 08:35:17;;;;;;;4.97;2.65;;;;;;;17.66;61.60;101417.66;6321256;22;20037;-79
2022/10/10 08:37:42;;;;;;;3.78;2.25;;;;;;;17.66;61.56;101423.72;6319328;22;20087;-80
2022/10/10 08:40:13;;;;;;;6.40;2.70;;;;;;;17.65;61.67;101415.91;6320443;22;20013;-79
2022/10/10 08:42:44;;;;;;;4.75;2.50;;;;;;;17.65;61.71;101413.31;6350163;22;20057;-79
2022/10/10 08:45:14;;;;;;;4.68;2.50;;;;;;;17.65;61.32;101408.09;6346571;22;20006;-79
2022/10/10 08:47:52;;;;;;;4.13;2.38;;;;;;;17.63;61.53;101404.63;6339536;22;20060;-80
2022/10/10 08:50:23;;;;;;;3.70;2.30;;;;;;;17.61;61.53;101415.03;6341407;22;20010;-79
2022/10/10 08:53:07;;;;;;;5.68;2.40;;;;;;;17.61;61.76;101421.97;6341672;22;19999;-78
2022/10/10 08:55:36;;;;;;;4.15;2.10;;;;;;;17.60;61.62;101421.13;6342615;22;20010;-79
2022/10/10 08:58:04;;;;;;;4.85;2.53;;;;;;;17.62;61.64;101421.13;6344971;22;19998;-79
2022/10/10 09:00:37;;;;;;;6.10;2.63;;;;;;;17.63;61.70;101426.31;6342855;22;20094;-79
2022/10/10 09:03:11;;;;;;;4.70;2.22;;;;;;;17.63;61.24;101426.31;6341667;22;20003;-79
2022/10/10 09:05:40;;;;;;;4.80;2.33;;;;;;;17.65;61.47;101427.19;6342980;22;20006;-79
2022/10/10 09:08:24;;;;;;;5.70;2.75;;;;;;;17.67;61.39;101427.19;6340539;22;20014;-79
2022/10/10 09:11:22;;;;;;;5.28;2.33;;;;;;;17.69;61.43;101428.06;6340562;22;20055;-78
2022/10/10 09:13:56;;;;;;;5.65;2.50;;;;;;;17.69;61.51;101431.53;6319823;22;20028;-79
2022/10/10 09:16:41;;;;;;;5.07;2.42;;;;;;;17.68;61.33;101437.59;6341573;22;20479;-79
2022/10/10 09:19:32;;;;;;;3.83;2.35;;;;;;;17.68;61.34;101436.72;6342704;22;20003;-79
2022/10/10 09:22:02;;;;;;;4.07;2.58;;;;;;;17.67;61.43;101446.25;6339871;22;20009;-79
2022/10/10 09:24:51;;;;;;;4.45;2.33;;;;;;;17.67;61.21;101448.00;6340892;22;20090;-79
2022/10/10 09:27:23;;;;;;;5.63;2.40;;;;;;;17.68;61.10;101445.41;6340003;22;20003;-79
2022/10/10 09:30:01;;;;;;;5.10;2.30;;;;;;;17.69;61.13;101447.13;6340495;22;20342;-79
2022/10/10 09:32:55;;;;;;;3.70;2.20;;;;;;;17.71;61.33;101438.47;6340510;22;20055;-79
2022/10/10 09:35:20;;;;;;;3.58;2.10;;;;;;;17.73;61.29;101449.75;6339007;22;20509;-78
2022/10/10 09:37:49;;;;;;;6.50;2.35;;;;;;;17.72;61.02;101448.88;6339380;22;20023;-79
2022/10/10 09:40:40;;;;;;;3.53;2.03;;;;;;;17.73;61.22;101447.16;6339586;22;20015;-79
2022/10/10 09:43:30;;;;;;;4.40;2.22;;;;;;;17.74;61.05;101448.88;6339848;22;19999;-80
2022/10/10 09:45:56;;;;;;;3.83;2.17;;;;;;;17.75;60.99;101448.88;6341167;22;20003;-78
2022/10/10 09:48:27;;;;;;;4.82;2.42;;;;;;;17.77;60.90;101452.34;6338872;22;20077;-79
2022/10/10 09:50:52;;;;;;;4.75;2.47;;;;;;;17.77;60.89;101462.75;6340674;22;20003;-79
2022/10/10 09:53:18;;;;;;;5.40;2.30;;;;;;;17.74;61.05;101467.09;6314024;22;20102;-79
2022/10/10 09:55:46;;;;;;;2.97;1.95;;;;;;;17.71;61.27;101467.97;6340138;22;19999;-79
2022/10/10 09:58:33;;;;;;;4.90;2.70;;;;;;;17.70;61.16;101481.84;6339345;22;20031;-79
2022/10/10 10:01:10;;;;;;;4.10;2.20;;;;;;;17.68;61.01;101487.06;6339654;22;20010;-78
2022/10/10 10:03:35;;;;;;;4.35;2.40;;;;;;;17.68;61.07;101491.38;6338935;22;20010;-79
2022/10/10 10:06:01;;;;;;;4.35;2.10;;;;;;;17.66;61.20;101495.75;6339041;22;20003;-79
2022/10/10 10:08:29;;;;;;;4.22;2.20;;;;;;;17.65;61.01;101500.06;6313017;22;20018;-79
2022/10/10 10:10:58;;;;;;;3.83;2.20;;;;;;;17.65;61.31;101504.41;6338826;22;20007;-78
2022/10/10 10:13:30;;;;;;;4.25;2.20;;;;;;;17.64;61.06;101508.75;6313788;22;20006;-82
2022/10/10 10:16:11;;;;;;;3.50;2.13;;;;;;;17.64;61.38;101511.34;6339089;22;20002;-83
2022/10/10 10:18:46;;;;;;;4.25;1.98;;;;;;;17.64;61.39;101507.88;6342478;22;20002;-82
2022/10/10 10:21:18;;;;;;;4.15;1.90;;;;;;;17.63;61.34;101509.59;6338931;22;20081;-83
2022/10/10 10:24:20;;;;;;;4.90;1.98;;;;;;;17.63;61.33;101517.41;6340118;22;19995;-83
2022/10/10 10:26:47;;;;;;;3.92;2.08;;;;;;;17.63;61.31;101513.94;6340111;22;20014;-83
2022/10/10 10:29:33;;;;;;;3.80;2.05;;;;;;;17.63;61.57;101521.75;6339626;22;20003;-81
2022/10/10 10:32:19;;;;;;;2.95;1.70;;;;;;;17.65;61.36;101523.47;6339666;22;20014;-82
2022/10/10 10:34:55;;;;;;;3.65;2.20;;;;;;;17.64;61.37;101523.50;6341781;22;20076;-82
2022/10/10 10:37:26;;;;;;;2.65;1.70;;;;;;;17.65;61.39;101535.63;6339687;22;20110;-83
2022/10/10 10:40:25;;;;;;;4.00;1.90;;;;;;;17.66;61.38;101529.59;6341258;22;20411;-79
2022/10/10 10:43:15;;;;;;;3.35;1.92;;;;;;;17.68;61.34;101541.72;6339737;22;20007;-79
2022/10/10 10:45:47;;;;;;;3.85;1.90;;;;;;;17.68;61.33;101546.94;6339740;22;19999;-79
2022/10/10 10:48:20;;;;;;;4.70;2.30;;;;;;;17.69;61.31;101540.84;6339310;22;20014;-79
2022/10/10 10:51:04;;;;;;;;;;;;;;;17.72;61.06;101552.13;6339804;22;19995;-79
2022/10/10 10:54:07;;;;;;;3.33;1.73;;;;;;;17.72;61.15;101546.91;6339205;22;19907;-79
2022/10/10 10:56:45;;;;;;;3.80;1.90;;;;;;;17.72;61.17;101557.34;6339097;22;20405;-79
2022/10/10 10:59:29;;;;;;;3.75;2.03;;;;;;;17.72;60.74;101549.53;6339242;22;20037;-79
2022/10/10 11:02:03;;;;;;;3.63;1.95;;;;;;;17.73;61.15;101551.28;6339190;22;20013;-79
2022/10/10 11:04:53;;;;;;;3.38;1.95;;;;;;;17.73;61.19;101553.88;6339081;22;20032;-79
2022/10/10 11:07:20;;;;;;;3.00;1.60;;;;;;;17.71;60.98;101551.25;6339523;22;20394;-79
2022/10/10 11:10:08;;;;;;;3.20;1.90;;;;;;;17.70;61.31;101557.31;6339164;22;20017;-78
2022/10/10 11:12:40;;;;;;;3.05;1.90;;;;;;;17.70;61.10;101565.13;6338983;22;20006;-79
2022/10/10 11:15:19;;;;;;;3.17;1.63;;;;;;;17.68;61.02;101567.75;6339018;22;20018;-78
2022/10/10 11:17:57;;;;;;;4.35;1.80;;;;;;;17.69;61.16;101563.41;6338986;22;20056;-79
2022/10/10 11:20:40;;;;;;;2.95;1.65;;;;;;;17.68;61.12;101562.56;6339450;22;20011;-78
2022/10/10 11:23:18;;;;;;;3.67;1.80;;;;;;;17.70;61.04;101559.94;6339329;22;20316;-78
2022/10/10 11:25:48;;;;;;;3.28;1.80;;;;;;;17.71;61.23;101563.41;6339200;22;19999;-79
2022/10/10 11:28:23;;;;;;;3.35;1.70;;;;;;;17.72;61.14;101565.16;6341280;22;19998;-79
2022/10/10 11:31:17;;;;;;;3.28;1.90;;;;;;;17.71;61.13;101576.44;6340666;22;20002;-79
2022/10/10 11:33:51;;;;;;;4.63;1.85;;;;;;;17.72;60.92;101575.56;6339826;22;20442;-79
2022/10/10 11:36:19;;;;;;;3.92;1.55;;;;;;;17.72;61.24;101579.03;6343925;22;20024;-79
2022/10/10 11:39:04;;;;;;;3.35;1.55;;;;;;;17.73;60.88;101587.72;6344175;22;20003;-79
2022/10/10 11:42:13;;;;;;;2.58;1.50;;;;;;;17.71;61.04;101579.03;6344226;22;20041;-78
2022/10/10 11:44:45;;;;;;;3.67;1.63;;;;;;;17.71;61.16;101573.84;6245269;23;20489;-79
2022/10/10 11:47:28;;;;;;;3.50;1.73;;;;;;;17.71;61.00;101576.44;6219746;23;20008;-77
2022/10/10 11:50:10;;;;;;;3.58;1.60;;;;;;;17.73;61.21;101583.38;6302034;22;20013;-79
2022/10/10 11:52:53;;;;;;;3.10;1.58;;;;;;;17.74;61.22;101579.91;6343803;22;20003;-79
2022/10/10 11:55:27;;;;;;;2.67;1.50;;;;;;;17.76;61.08;101591.19;6344221;22;20002;-79
2022/10/10 11:57:56;;;;;;;2.88;1.40;;;;;;;17.75;61.10;101589.47;6343931;22;19998;-79
2022/10/10 12:00:21;;;;;;;2.35;1.30;;;;;;;17.74;61.01;101589.44;6344094;22;20002;-79
2022/10/10 12:02:47;;;;;;;2.40;1.40;;;;;;;17.73;61.05;101596.41;6292391;22;20098;-79
2022/10/10 12:05:22;;;;;;;2.67;1.45;;;;;;;17.72;61.27;101597.25;6318066;22;20025;-79
2022/10/10 12:07:57;;;;;;;2.38;1.50;;;;;;;17.71;60.97;101605.06;6370072;22;20010;-79
2022/10/10 12:10:24;;;;;;;2.08;1.50;;;;;;;17.71;61.09;101599.88;6372845;22;20033;-80
2022/10/10 12:12:55;;;;;;;2.88;1.40;;;;;;;17.70;61.34;101619.78;6343634;22;20014;-78
2022/10/10 12:15:31;;;;;;;3.40;1.38;;;;;;;17.70;61.34;101630.22;6343938;22;20003;-79
2022/10/10 12:17:57;;;;;;;2.60;1.30;;;;;;;17.70;61.18;101632.81;6372153;22;20010;-79
2022/10/10 12:20:25;;;;;;;3.85;1.67;;;;;;;17.69;61.39;101644.97;6317961;22;20403;-78
2022/10/10 12:23:12;;;;;;;1.80;1.25;;;;;;;17.70;61.21;101656.25;6343670;22;20042;-79
2022/10/10 12:25:41;;;;;;;2.35;1.30;;;;;;;17.70;61.41;101669.25;6343513;22;20418;-79
2022/10/10 12:28:12;;;;;;;1.83;1.10;;;;;;;17.69;61.17;101664.94;6343896;22;20375;-78
2022/10/10 12:31:04;;;;;;;4.03;1.38;;;;;;;17.69;61.23;101673.59;6371338;22;20077;-79
2022/10/10 12:33:32;;;;;;;4.15;1.30;;;;;;;17.70;61.28;101682.28;6296357;22;20013;-78
2022/10/10 12:36:19;;;;;;;2.70;1.38;;;;;;;17.71;61.40;101680.56;6371267;22;19999;-79
2022/10/10 12:39:07;;;;;;;2.35;1.40;;;;;;;17.72;61.25;101674.47;6343751;22;20017;-78
2022/10/10 12:41:41;;;;;;;2.50;1.38;;;;;;;17.72;61.18;101682.28;6371417;22;20002;-78
2022/10/10 12:44:23;;;;;;;1.95;1.10;;;;;;;17.72;61.16;101690.09;6343405;22;19998;-77
2022/10/10 12:47:15;;;;;;;1.92;1.20;;;;;;;17.71;61.19;101691.84;6343522;22;20007;-78
2022/10/10 12:50:05;;;;;;;2.08;1.20;;;;;;;17.71;61.11;101704.00;6343459;22;20010;-79
2022/10/10 12:52:56;;;;;;;2.78;1.30;;;;;;;17.72;61.45;101706.56;6344482;22;20438;-78
2022/10/10 12:55:31;;;;;;;2.28;1.30;;;;;;;17.71;61.42;101717.88;6371243;22;20006;-78
2022/10/10 12:58:02;;;;;;;2.75;1.40;;;;;;;17.73;61.22;101713.53;6343675;22;20009;-78
2022/10/10 13:00:49;;;;;;;2.55;1.25;;;;;;;17.74;61.23;101724.81;6371428;22;19999;-78
2022/10/10 13:03:20;;;;;;;2.60;1.40;;;;;;;17.75;61.31;101729.16;6343540;22;20085;-80
2022/10/10 13:05:47;;;;;;;2.58;1.40;;;;;;;17.76;61.13;101730.91;6343694;22;20085;-79
2022/10/10 13:08:17;;;;;;;2.67;1.20;;;;;;;17.77;61.43;101735.22;6343727;22;20375;-80
2022/10/10 13:10:59;;;;;;;2.38;1.20;;;;;;;17.78;61.16;101739.59;6371420;22;20053;-80
2022/10/10 13:13:24;;;;;;;2.08;1.25;;;;;;;17.79;61.28;101744.81;6343205;22;20009;-79
2022/10/10 13:16:04;;;;;;;2.85;1.20;;;;;;;17.80;61.44;101745.66;6343789;22;20002;-79
2022/10/10 13:18:32;;;;;;;2.67;1.17;;;;;;;17.79;61.31;101750.00;6371637;22;20006;-79
2022/10/10 13:20:58;;;;;;;2.38;1.15;;;;;;;17.79;61.38;101752.63;6372645;22;20066;-78
2022/10/10 13:23:24;;;;;;;2.97;1.25;;;;;;;17.78;61.05;101758.66;6344674;22;20002;-79
2022/10/10 13:25:49;;;;;;;2.50;1.13;;;;;;;17.77;61.30;101767.38;6318847;22;20087;-79